Time;durP1;ratioP1;P1;durP2;ratioP2;P2;SDS_P1;SDS_P2;PMS_P1;PMS_P2;Temp;Humidity;BMP_temperature;BMP_pressure;BME280_temperature;BME280_humidity;BME280_pressure;Samples;Min_cycle;Max_cycle;Signal;HPM_P1;HPM_P2
2021/09/07 00:00:51;;;;;;;11.15;7.82;;;;;;;21.37;57.18;102358.63;5053781;28;20274;-69
2021/09/07 00:03:16;;;;;;;10.65;8.05;;;;;;;21.36;57.06;102358.72;5052644;28;20052;-68
2021/09/07 00:05:41;;;;;;;10.38;7.85;;;;;;;21.36;57.21;102364.91;5053941;28;20032;-69
2021/09/07 00:08:07;;;;;;;10.88;7.90;;;;;;;21.34;57.00;102363.31;5053500;28;20143;-68
2021/09/07 00:10:32;;;;;;;10.55;7.57;;;;;;;21.34;56.98;102364.13;5053609;28;20075;-69
2021/09/07 00:12:58;;;;;;;11.05;7.57;;;;;;;21.35;57.24;102362.34;5053699;28;20397;-69
2021/09/07 00:15:23;;;;;;;11.38;8.30;;;;;;;21.34;57.30;102358.84;5053194;28;20045;-69
2021/09/07 00:17:48;;;;;;;10.88;7.72;;;;;;;21.33;57.16;102351.84;5053651;28;20031;-68
2021/09/07 00:20:14;;;;;;;11.95;7.53;;;;;;;21.32;56.88;102357.28;5053889;28;20108;-69
2021/09/07 00:22:42;;;;;;;10.23;7.40;;;;;;;21.34;57.01;102355.34;5052961;28;20017;-68
2021/09/07 00:25:08;;;;;;;9.77;7.80;;;;;;;21.30;56.98;102357.38;5053523;28;20032;-68
2021/09/07 00:27:33;;;;;;;13.95;7.90;;;;;;;21.32;57.03;102358.09;5053432;28;20113;-68
2021/09/07 00:29:59;;;;;;;11.38;8.00;;;;;;;21.32;56.98;102351.97;5052608;28;20021;-68
2021/09/07 00:32:24;;;;;;;10.57;7.13;;;;;;;21.31;56.82;102345.78;5053568;28;20033;-68
2021/09/07 00:34:49;;;;;;;11.30;7.82;;;;;;;21.32;57.31;102342.19;5053165;28;20020;-68
2021/09/07 00:37:15;;;;;;;9.75;7.80;;;;;;;21.31;56.88;102340.50;5052230;28;20033;-68
2021/09/07 00:39:40;;;;;;;10.50;7.30;;;;;;;21.29;56.83;102329.16;5053349;28;20052;-67
2021/09/07 00:42:05;;;;;;;10.73;7.47;;;;;;;21.31;57.03;102334.34;5052305;28;20128;-68
2021/09/07 00:44:31;;;;;;;9.70;7.15;;;;;;;21.30;57.08;102330.00;5052781;28;20159;-68
2021/09/07 00:47:01;;;;;;;10.73;7.25;;;;;;;21.29;57.06;102331.81;5052686;28;20136;-69
2021/09/07 00:49:28;;;;;;;11.82;7.25;;;;;;;21.29;57.06;102331.81;5053206;28;20029;-68
2021/09/07 00:51:55;;;;;;;11.73;7.05;;;;;;;21.29;57.00;102337.13;5052125;28;20025;-68
2021/09/07 00:54:29;;;;;;;9.88;7.43;;;;;;;21.28;56.91;102332.75;5053415;28;20045;-67
2021/09/07 00:56:56;;;;;;;11.57;7.93;;;;;;;21.28;56.86;102330.09;5053061;28;20021;-68
2021/09/07 00:59:23;;;;;;;11.25;7.30;;;;;;;21.28;56.95;102329.28;5052300;28;20036;-68
2021/09/07 01:01:49;;;;;;;9.95;7.25;;;;;;;21.27;56.96;102331.09;5052687;28;20106;-67
2021/09/07 01:04:14;;;;;;;9.82;7.40;;;;;;;21.28;56.81;102335.41;5052906;28;20132;-67
2021/09/07 01:06:40;;;;;;;10.40;7.38;;;;;;;21.28;57.08;102330.09;5052200;28;20052;-67
2021/09/07 01:09:09;;;;;;;9.95;7.13;;;;;;;21.26;56.79;102324.06;5052588;28;20132;-68
2021/09/07 01:11:35;;;;;;;10.02;7.68;;;;;;;21.26;56.89;102317.94;5052120;28;20029;-68
2021/09/07 01:14:00;;;;;;;9.88;7.47;;;;;;;21.26;56.91;102317.94;5052309;28;20024;-68
2021/09/07 01:16:25;;;;;;;10.30;7.70;;;;;;;21.26;56.89;102312.63;5052848;28;20040;-68
2021/09/07 01:18:55;;;;;;;9.93;7.40;;;;;;;21.25;57.04;102313.56;5051628;28;20033;-67
2021/09/07 01:21:21;;;;;;;10.98;8.10;;;;;;;21.25;56.92;102314.41;5052867;28;20029;-67
2021/09/07 01:23:48;;;;;;;9.75;7.63;;;;;;;21.26;56.99;102315.28;5052783;28;20021;-68
2021/09/07 01:26:16;;;;;;;10.13;7.65;;;;;;;21.24;56.88;102311.88;5052027;28;20025;-67
2021/09/07 01:28:43;;;;;;;10.25;7.90;;;;;;;21.24;56.78;102317.16;5052404;28;20033;-68
2021/09/07 01:31:10;;;;;;;11.15;8.05;;;;;;;21.22;57.00;102309.34;5052754;28;20119;-68
2021/09/07 01:33:36;;;;;;;10.40;7.72;;;;;;;21.22;57.00;102306.72;5063321;28;20419;-68
2021/09/07 01:36:02;;;;;;;10.07;7.40;;;;;;;21.23;56.65;102311.03;5064192;28;20029;-69
2021/09/07 01:38:29;;;;;;;10.15;7.70;;;;;;;21.17;56.81;102303.50;5061375;28;20017;-68
2021/09/07 01:40:55;;;;;;;10.20;7.68;;;;;;;21.23;56.90;102307.53;5060743;28;20036;-68
2021/09/07 01:43:21;;;;;;;10.25;8.10;;;;;;;21.22;56.78;102306.72;5061409;28;20240;-68
2021/09/07 01:45:47;;;;;;;10.80;7.47;;;;;;;21.23;56.93;102305.72;5061102;28;20032;-68
2021/09/07 01:48:20;;;;;;;10.60;7.85;;;;;;;21.22;56.71;102300.53;5061449;28;20047;-69
2021/09/07 01:50:46;;;;;;;10.68;7.63;;;;;;;21.22;56.64;102312.00;5061513;28;20025;-69
2021/09/07 01:53:12;;;;;;;9.63;7.68;;;;;;;21.17;56.74;102295.56;5052536;28;20389;-69
2021/09/07 01:55:37;;;;;;;9.55;7.25;;;;;;;21.19;56.74;102307.75;5052354;28;20147;-68
2021/09/07 01:58:03;;;;;;;11.75;7.80;;;;;;;21.21;56.91;102305.00;5052712;28;20476;-68
2021/09/07 02:00:29;;;;;;;9.13;6.97;;;;;;;21.22;56.73;102308.50;5052851;28;20357;-68
2021/09/07 02:02:54;;;;;;;10.77;7.10;;;;;;;21.19;56.83;102305.13;5051505;28;20033;-68
2021/09/07 02:05:19;;;;;;;11.52;7.85;;;;;;;21.19;56.93;102304.28;5052337;28;20021;-68
2021/09/07 02:07:45;;;;;;;9.70;7.22;;;;;;;21.20;56.65;102304.16;5051767;28;20036;-68
2021/09/07 02:10:12;;;;;;;10.68;7.07;;;;;;;21.19;56.93;102298.97;5052182;28;20099;-69
2021/09/07 02:12:38;;;;;;;9.65;6.93;;;;;;;21.19;56.73;102302.47;5052203;28;20108;-68
2021/09/07 02:15:07;;;;;;;10.23;7.15;;;;;;;21.19;56.68;102305.13;5051688;28;20056;-68
2021/09/07 02:17:32;;;;;;;9.60;7.28;;;;;;;21.19;57.04;102310.41;5052500;28;20021;-68
2021/09/07 02:20:01;;;;;;;9.90;7.32;;;;;;;21.18;56.75;102316.66;5051755;28;20013;-68
2021/09/07 02:22:26;;;;;;;10.48;7.88;;;;;;;21.18;56.56;102316.66;5051507;28;20120;-68
2021/09/07 02:24:53;;;;;;;9.35;7.25;;;;;;;21.15;56.60;102316.88;5051617;28;20017;-67
2021/09/07 02:27:19;;;;;;;10.43;7.25;;;;;;;21.19;56.74;102328.13;5051714;28;20032;-68
2021/09/07 02:29:45;;;;;;;11.30;7.82;;;;;;;21.18;56.72;102318.47;5051379;28;20372;-67
2021/09/07 02:32:10;;;;;;;9.68;7.53;;;;;;;21.17;56.71;102314.13;5051547;28;20017;-68
2021/09/07 02:34:35;;;;;;;9.82;7.55;;;;;;;21.18;56.70;102318.47;5051709;28;20025;-68
2021/09/07 02:37:01;;;;;;;9.20;6.85;;;;;;;21.17;56.61;102315.00;5050848;28;20040;-69
2021/09/07 02:39:26;;;;;;;10.02;7.22;;;;;;;21.16;56.37;102310.63;5051963;28;20025;-69
2021/09/07 02:41:52;;;;;;;10.90;7.30;;;;;;;21.16;56.65;102317.75;5051326;28;20067;-68
2021/09/07 02:44:18;;;;;;;10.05;7.22;;;;;;;21.14;56.53;102317.00;5051022;28;20021;-68
2021/09/07 02:46:44;;;;;;;10.85;7.72;;;;;;;21.14;56.48;102312.56;5053374;28;20125;-67
2021/09/07 02:49:10;;;;;;;9.18;6.93;;;;;;;21.15;56.33;102316.88;5054990;28;20454;-68
2021/09/07 02:51:36;;;;;;;9.52;7.22;;;;;;;21.15;56.51;102310.75;5054653;28;20041;-68
2021/09/07 02:54:01;;;;;;;9.88;7.50;;;;;;;21.13;56.44;102304.72;5055065;28;20104;-68
2021/09/07 02:56:26;;;;;;;10.25;7.18;;;;;;;21.15;56.62;102308.09;5055370;28;20043;-68
2021/09/07 02:58:52;;;;;;;10.80;7.97;;;;;;;21.14;56.55;102299.28;5054135;28;20060;-68
2021/09/07 03:01:17;;;;;;;11.00;7.25;;;;;;;21.13;56.46;102297.59;5055468;28;20331;-67
2021/09/07 03:03:42;;;;;;;9.23;6.75;;;;;;;21.13;56.54;102302.91;5055248;28;20021;-68
2021/09/07 03:06:08;;;;;;;10.07;7.00;;;;;;;21.14;56.29;102295.78;5054344;28;20107;-68
2021/09/07 03:08:33;;;;;;;10.48;7.70;;;;;;;21.13;56.41;102299.41;5055147;28;20282;-68
2021/09/07 03:10:59;;;;;;;9.60;6.95;;;;;;;21.11;56.31;102288.91;5054636;28;20380;-68
2021/09/07 03:13:24;;;;;;;10.85;7.95;;;;;;;21.11;56.45;102288.91;5054117;28;20048;-68
2021/09/07 03:15:50;;;;;;;10.98;7.47;;;;;;;21.12;56.40;102287.94;5054877;28;20024;-68
2021/09/07 03:18:15;;;;;;;11.98;7.05;;;;;;;21.12;56.34;102284.44;5054263;28;20040;-67
2021/09/07 03:20:41;;;;;;;10.85;7.10;;;;;;;21.09;56.32;102277.53;5054811;28;20021;-67
2021/09/07 03:23:06;;;;;;;9.57;7.05;;;;;;;21.11;56.47;102282.75;5054625;28;20028;-69
2021/09/07 03:25:32;;;;;;;10.05;7.28;;;;;;;21.11;55.99;102280.09;5054035;28;20025;-68
2021/09/07 03:27:58;;;;;;;9.63;7.20;;;;;;;21.11;56.34;102274.78;5054330;28;20052;-68
2021/09/07 03:30:24;;;;;;;11.05;6.90;;;;;;;21.09;56.39;102272.25;5054853;28;20112;-68
2021/09/07 03:32:50;;;;;;;10.95;7.10;;;;;;;21.10;56.49;102266.00;5053681;28;20115;-68
2021/09/07 03:35:16;;;;;;;9.80;6.63;;;;;;;21.10;56.39;102268.66;5054725;28;20031;-67
2021/09/07 03:37:43;;;;;;;10.13;7.18;;;;;;;21.08;56.21;102265.28;5054531;28;20025;-69
2021/09/07 03:40:11;;;;;;;10.82;7.38;;;;;;;21.10;56.21;102275.75;5053366;28;20479;-68
2021/09/07 03:42:36;;;;;;;9.38;7.07;;;;;;;21.11;56.35;102274.78;5054504;28;20453;-68
2021/09/07 03:45:03;;;;;;;9.85;7.28;;;;;;;21.10;56.61;102270.47;5053935;28;20043;-67
2021/09/07 03:47:29;;;;;;;10.10;7.25;;;;;;;21.10;56.31;102271.31;5053379;28;20049;-68
2021/09/07 03:49:57;;;;;;;9.60;7.20;;;;;;;21.09;56.35;102261.66;5054151;28;20032;-68
2021/09/07 03:52:22;;;;;;;9.25;7.13;;;;;;;21.10;56.40;102265.16;5054232;28;20021;-68
2021/09/07 03:54:48;;;;;;;9.75;7.05;;;;;;;21.09;56.43;102274.91;5053251;28;20466;-68
2021/09/07 03:57:16;;;;;;;9.18;6.80;;;;;;;21.09;56.24;102279.38;5053652;28;20112;-68
2021/09/07 03:59:41;;;;;;;9.30;7.00;;;;;;;21.09;56.39;102272.25;5054265;28;20028;-68
2021/09/07 04:02:06;;;;;;;9.50;7.03;;;;;;;21.07;56.51;102270.69;5053239;28;20029;-68
2021/09/07 04:04:32;;;;;;;10.18;6.90;;;;;;;21.09;56.48;102266.09;5053908;28;20274;-67
2021/09/07 04:06:58;;;;;;;8.82;7.00;;;;;;;21.07;56.32;102271.53;5053613;28;20032;-67
2021/09/07 04:09:24;;;;;;;9.85;7.22;;;;;;;21.07;56.61;102270.69;5053381;28;20118;-67
2021/09/07 04:11:50;;;;;;;9.50;7.10;;;;;;;21.07;56.29;102274.16;5053343;28;20472;-68
2021/09/07 04:14:16;;;;;;;9.30;6.82;;;;;;;21.07;56.54;102268.88;5053900;28;20391;-67
2021/09/07 04:16:41;;;;;;;9.15;7.05;;;;;;;21.07;56.52;102268.88;5053031;28;20028;-67
2021/09/07 04:19:06;;;;;;;8.80;7.18;;;;;;;21.07;56.32;102268.03;5053379;28;20032;-67
2021/09/07 04:21:32;;;;;;;10.57;7.65;;;;;;;21.07;56.54;102275.97;5052814;28;20050;-68
2021/09/07 04:23:57;;;;;;;10.52;7.72;;;;;;;21.05;56.56;102276.09;5052910;28;20503;-68
2021/09/07 04:26:22;;;;;;;9.40;6.72;;;;;;;21.06;56.36;102268.97;5052814;28;20032;-69
2021/09/07 04:28:47;;;;;;;9.98;6.85;;;;;;;21.05;56.35;102273.44;5052114;28;20037;-69
2021/09/07 04:31:13;;;;;;;9.88;7.10;;;;;;;21.05;56.50;102276.09;5052971;28;20443;-69
2021/09/07 04:33:38;;;;;;;9.25;6.53;;;;;;;21.06;56.49;102274.28;5052892;28;20013;-68
2021/09/07 04:36:04;;;;;;;8.77;6.72;;;;;;;21.06;56.49;102279.59;5051930;28;20021;-68
2021/09/07 04:38:29;;;;;;;10.33;6.77;;;;;;;21.05;56.39;102273.44;5052967;28;20025;-68
2021/09/07 04:40:57;;;;;;;9.40;6.88;;;;;;;21.05;56.39;102275.25;5052705;28;20351;-67
2021/09/07 04:43:22;;;;;;;9.88;6.82;;;;;;;21.05;56.40;102275.25;5052421;28;20067;-68
2021/09/07 04:45:48;;;;;;;9.90;6.85;;;;;;;21.05;56.42;102281.41;5052463;28;20029;-67
2021/09/07 04:48:16;;;;;;;9.73;6.75;;;;;;;21.03;56.54;102278.00;5053088;28;20029;-68
2021/09/07 04:50:41;;;;;;;9.68;7.22;;;;;;;21.03;56.29;102283.31;5052196;28;20029;-69
2021/09/07 04:53:07;;;;;;;11.05;7.50;;;;;;;21.04;56.63;102278.84;5052747;28;20021;-68
2021/09/07 04:55:32;;;;;;;11.20;7.20;;;;;;;21.05;56.02;102288.50;5052754;28;20100;-68
2021/09/07 04:57:57;;;;;;;10.80;7.47;;;;;;;21.04;56.66;102292.09;5052006;28;20464;-67
2021/09/07 05:00:23;;;;;;;9.07;7.17;;;;;;;21.03;56.57;102285.97;5052807;28;20024;-68
2021/09/07 05:02:48;;;;;;;8.40;6.37;;;;;;;21.03;56.50;102280.66;5052639;28;20278;-67
2021/09/07 05:05:13;;;;;;;9.10;6.82;;;;;;;21.00;56.49;102281.72;5052021;28;20677;-67
2021/09/07 05:07:41;;;;;;;10.60;7.18;;;;;;;21.03;56.38;102291.25;5052727;28;20033;-67
2021/09/07 05:10:07;;;;;;;9.15;6.68;;;;;;;21.02;56.34;102286.91;5051703;28;20047;-67
2021/09/07 05:12:33;;;;;;;11.18;7.10;;;;;;;21.02;56.23;102290.41;5050737;28;20021;-68
2021/09/07 05:14:58;;;;;;;10.23;7.43;;;;;;;21.01;56.12;102294.03;5052467;28;20028;-67
2021/09/07 05:17:23;;;;;;;9.90;6.95;;;;;;;21.01;56.33;102293.16;5052580;28;20464;-67
2021/09/07 05:19:54;;;;;;;9.37;6.73;;;;;;;21.02;56.34;102292.22;5051414;28;20064;-67
2021/09/07 05:22:19;;;;;;;9.27;7.13;;;;;;;21.01;56.50;102294.03;5052475;28;20266;-68
2021/09/07 05:24:45;;;;;;;9.45;6.88;;;;;;;21.01;56.28;102294.03;5051622;28;20032;-68
2021/09/07 05:27:10;;;;;;;11.00;7.50;;;;;;;21.02;56.27;102294.88;5051622;28;20570;-68
2021/09/07 05:29:35;;;;;;;9.43;7.07;;;;;;;21.00;56.35;102287.03;5052182;28;20032;-68
2021/09/07 05:32:03;;;;;;;10.67;7.60;;;;;;;21.02;56.27;102292.22;5051604;28;20435;-68
2021/09/07 05:34:30;;;;;;;10.48;6.95;;;;;;;21.01;56.33;102295.81;5052474;28;20290;-68
2021/09/07 05:36:58;;;;;;;9.90;7.00;;;;;;;21.00;56.36;102294.13;5051915;28;20025;-67
2021/09/07 05:39:24;;;;;;;9.00;6.85;;;;;;;20.99;56.46;102301.22;5051672;28;20126;-68
2021/09/07 05:42:09;;;;;;;12.02;7.15;;;;;;;21.01;56.39;102306.41;5052032;28;20024;-68
2021/09/07 05:44:35;;;;;;;9.55;6.93;;;;;;;21.00;56.39;102310.88;5051996;28;20040;-68
2021/09/07 05:47:00;;;;;;;9.07;6.90;;;;;;;20.99;56.36;102303.03;5051082;28;20052;-68
2021/09/07 05:49:29;;;;;;;9.25;6.68;;;;;;;20.98;56.29;102303.97;5052123;28;20266;-65
2021/09/07 05:51:54;;;;;;;9.20;6.57;;;;;;;21.00;56.59;102310.88;5051656;28;20033;-67
2021/09/07 05:54:19;;;;;;;8.80;6.70;;;;;;;20.99;56.67;102306.50;5051301;28;20025;-67
2021/09/07 05:56:47;;;;;;;10.40;7.30;;;;;;;20.96;56.72;102304.06;5052006;28;20278;-67
2021/09/07 05:59:13;;;;;;;9.98;7.25;;;;;;;20.98;56.65;102306.63;5051971;28;20321;-69
2021/09/07 06:01:45;;;;;;;10.30;7.00;;;;;;;20.97;56.76;102305.78;5051280;28;20033;-69
2021/09/07 06:04:13;;;;;;;12.77;7.15;;;;;;;20.98;56.69;102304.84;5051585;28;20029;-68
2021/09/07 06:06:38;;;;;;;9.15;6.88;;;;;;;20.99;56.80;102306.50;5052112;28;20029;-70
2021/09/07 06:09:03;;;;;;;10.18;7.25;;;;;;;21.00;56.94;102302.09;5051003;28;20033;-70
2021/09/07 06:11:28;;;;;;;10.93;7.32;;;;;;;21.01;56.99;102307.28;5051967;28;20060;-70
2021/09/07 06:13:54;;;;;;;9.18;6.95;;;;;;;20.99;57.07;102298.56;5051058;28;20455;-69
2021/09/07 06:16:23;;;;;;;10.70;6.82;;;;;;;21.04;56.90;102314.16;5051503;28;20017;-71
2021/09/07 06:18:48;;;;;;;10.20;7.15;;;;;;;21.02;57.10;102300.16;5051611;28;20029;-68
2021/09/07 06:21:14;;;;;;;9.73;6.88;;;;;;;21.06;56.89;102308.72;5054106;28;20031;-71
2021/09/07 06:23:39;;;;;;;8.88;6.72;;;;;;;21.06;57.25;102311.38;5055959;28;20086;-71
2021/09/07 06:26:04;;;;;;;10.05;7.32;;;;;;;21.07;57.32;102313.94;5055738;28;20028;-70
2021/09/07 06:28:33;;;;;;;9.43;6.78;;;;;;;21.09;57.23;102314.66;5055039;28;20025;-70
2021/09/07 06:30:58;;;;;;;9.60;6.70;;;;;;;21.07;57.45;102310.44;5055454;28;20079;-71
2021/09/07 06:33:23;;;;;;;9.25;6.80;;;;;;;21.09;57.54;102311.16;5055740;28;20025;-71
2021/09/07 06:35:51;;;;;;;10.30;6.68;;;;;;;21.12;57.63;102310.97;5054825;28;20108;-71
2021/09/07 06:38:17;;;;;;;9.00;6.93;;;;;;;21.11;57.64;102304.81;5055643;28;20099;-70
2021/09/07 06:40:42;;;;;;;10.43;7.40;;;;;;;21.14;57.54;102307.25;5055927;28;20427;-70
2021/09/07 06:43:07;;;;;;;9.15;6.45;;;;;;;21.15;57.53;102311.56;5054551;28;20029;-70
2021/09/07 06:45:33;;;;;;;9.40;7.10;;;;;;;21.14;57.75;102307.25;5055253;28;20542;-68
2021/09/07 06:47:58;;;;;;;11.63;6.90;;;;;;;21.18;57.78;102308.72;5055044;28;20040;-69
2021/09/07 06:50:24;;;;;;;10.02;7.47;;;;;;;21.20;57.97;102316.56;5054978;28;20083;-69
2021/09/07 06:52:49;;;;;;;10.07;7.13;;;;;;;21.18;57.85;102314.00;5055346;28;20029;-69
2021/09/07 06:55:14;;;;;;;9.00;6.85;;;;;;;21.23;57.88;102315.50;5055661;28;20105;-68
2021/09/07 06:57:39;;;;;;;11.05;6.68;;;;;;;21.25;57.90;102325.03;5055725;28;20048;-68
2021/09/07 07:00:06;;;;;;;12.63;7.47;;;;;;;21.28;58.18;102322.16;5055705;28;20056;-69
2021/09/07 07:02:35;;;;;;;11.70;6.88;;;;;;;21.28;58.33;102322.16;5055071;28;20831;-63
2021/09/07 07:05:01;;;;;;;10.45;7.13;;;;;;;21.30;58.20;102317.59;5054326;28;20082;-66
2021/09/07 07:07:26;;;;;;;10.60;7.00;;;;;;;21.32;58.02;102326.28;5055183;28;20025;-66
2021/09/07 07:09:51;;;;;;;11.43;7.07;;;;;;;21.30;57.81;102316.75;5054834;28;20270;-66
2021/09/07 07:12:17;;;;;;;10.35;7.68;;;;;;;21.35;58.00;102323.41;5054542;28;20290;-67
2021/09/07 07:14:48;;;;;;;10.73;7.43;;;;;;;21.35;58.06;102319.94;5055375;28;20025;-67
2021/09/07 07:17:13;;;;;;;13.15;7.72;;;;;;;21.35;57.80;102320.75;5054072;28;20078;-65
2021/09/07 07:19:38;;;;;;;9.17;6.77;;;;;;;21.34;57.92;102315.56;5054975;28;20151;-65
2021/09/07 07:22:07;;;;;;;10.80;7.17;;;;;;;21.37;57.92;102326.78;5055225;28;20301;-69
2021/09/07 07:24:32;;;;;;;12.05;7.28;;;;;;;21.31;57.90;102319.28;5054244;28;20285;-68
2021/09/07 07:27:00;;;;;;;10.23;7.30;;;;;;;21.39;57.85;102326.69;5054737;28;20025;-68
2021/09/07 07:29:29;;;;;;;10.23;6.78;;;;;;;21.40;57.83;102332.84;5054643;28;20285;-68
2021/09/07 07:31:54;;;;;;;10.23;6.72;;;;;;;21.38;57.72;102333.81;5051460;28;20021;-69
2021/09/07 07:34:19;;;;;;;9.43;6.60;;;;;;;21.40;57.83;102331.03;5054881;28;20029;-68
2021/09/07 07:36:45;;;;;;;11.60;7.07;;;;;;;21.39;58.08;102326.69;5054698;28;20025;-66
2021/09/07 07:39:13;;;;;;;10.30;6.72;;;;;;;21.40;58.04;102339.00;5053621;28;20025;-68
2021/09/07 07:41:38;;;;;;;8.93;6.65;;;;;;;21.40;57.76;102338.16;5054335;28;20057;-66
2021/09/07 07:44:03;;;;;;;9.93;6.70;;;;;;;21.37;57.99;102345.38;5054139;28;20027;-68
2021/09/07 07:46:32;;;;;;;10.90;7.13;;;;;;;21.40;58.04;102349.59;5053670;28;20352;-67
2021/09/07 07:48:57;;;;;;;10.88;7.18;;;;;;;21.38;58.17;102341.75;5053977;28;20112;-64
2021/09/07 07:51:22;;;;;;;10.90;7.57;;;;;;;21.38;58.02;102348.88;5054363;28;20417;-66
2021/09/07 07:53:48;;;;;;;10.10;6.93;;;;;;;21.38;58.06;102347.06;5053498;28;20273;-66
2021/09/07 07:56:16;;;;;;;10.32;7.00;;;;;;;21.41;58.15;102350.44;5054875;28;20270;-66
2021/09/07 07:58:41;;;;;;;9.15;6.93;;;;;;;21.42;58.20;102355.63;5053952;28;20558;-67
2021/09/07 08:01:06;;;;;;;11.33;7.13;;;;;;;21.42;58.39;102347.69;5053679;28;20132;-68
2021/09/07 08:03:33;;;;;;;10.32;6.78;;;;;;;21.45;58.48;102349.28;5054366;28;20068;-68
2021/09/07 08:05:59;;;;;;;11.98;7.63;;;;;;;21.46;58.74;102356.25;5054248;28;20357;-66
2021/09/07 08:08:24;;;;;;;9.95;7.38;;;;;;;21.45;58.96;102354.59;5053400;28;20032;-68
2021/09/07 08:11:31;;;;;;;10.80;6.83;;;;;;;21.47;58.86;102363.28;5055988;28;20036;-68
2021/09/07 08:13:58;;;;;;;10.95;7.55;;;;;;;21.49;59.04;102359.59;5055161;28;20274;-68
2021/09/07 08:16:24;;;;;;;10.80;7.10;;;;;;;21.49;59.15;102358.72;5054026;28;20060;-68
2021/09/07 08:18:49;;;;;;;11.40;7.63;;;;;;;21.49;58.88;102364.03;5053535;28;20065;-68
2021/09/07 08:21:15;;;;;;;11.73;7.30;;;;;;;21.47;58.99;102348.19;5053282;28;20487;-68
2021/09/07 08:23:40;;;;;;;12.45;7.65;;;;;;;21.48;59.01;102359.66;5054016;28;20033;-66
2021/09/07 08:26:08;;;;;;;11.03;7.13;;;;;;;21.47;58.74;102355.31;5053524;28;20033;-68
2021/09/07 08:28:33;;;;;;;10.65;7.57;;;;;;;21.49;58.81;102362.25;5053439;28;20304;-68
2021/09/07 08:31:09;;;;;;;9.83;7.43;;;;;;;21.50;58.67;102360.44;5053474;28;20025;-68
2021/09/07 08:33:34;;;;;;;9.80;7.38;;;;;;;21.48;58.50;102357.88;5054179;28;20616;-68
2021/09/07 08:35:59;;;;;;;13.68;7.25;;;;;;;21.51;58.49;102355.00;5052701;28;20128;-69
2021/09/07 08:38:24;;;;;;;11.87;8.00;;;;;;;21.50;58.44;102349.81;5053581;28;20468;-68
2021/09/07 08:40:53;;;;;;;11.48;6.90;;;;;;;21.51;58.41;102349.72;5053615;28;20613;-67
2021/09/07 08:43:20;;;;;;;10.10;7.25;;;;;;;21.52;58.34;102351.41;5054804;28;20478;-68
2021/09/07 08:45:50;;;;;;;9.85;7.13;;;;;;;21.52;58.47;102354.06;5053697;28;20029;-69
2021/09/07 08:48:15;;;;;;;11.43;7.32;;;;;;;21.52;58.27;102356.72;5053515;28;20049;-69
2021/09/07 08:50:42;;;;;;;10.68;7.43;;;;;;;21.50;58.47;102355.97;5052657;28;20056;-68
2021/09/07 08:53:10;;;;;;;10.07;6.50;;;;;;;21.51;58.28;102360.31;5053066;28;20025;-68
2021/09/07 08:55:36;;;;;;;10.45;7.75;;;;;;;21.50;58.34;102361.28;5053242;28;20083;-71
2021/09/07 08:58:01;;;;;;;9.93;7.30;;;;;;;21.49;58.02;102364.91;5051939;28;20037;-70
2021/09/07 09:00:28;;;;;;;9.98;7.18;;;;;;;21.50;58.13;102363.09;5053418;28;20749;-68
2021/09/07 09:02:54;;;;;;;10.02;7.07;;;;;;;21.49;58.37;102362.25;5052587;28;20134;-68
2021/09/07 09:05:25;;;;;;;10.13;6.88;;;;;;;21.52;58.30;102361.16;5053402;28;20512;-69
2021/09/07 09:07:50;;;;;;;10.18;7.28;;;;;;;21.54;58.29;102364.56;5052469;28;20025;-69
2021/09/07 09:10:21;;;;;;;10.07;6.60;;;;;;;21.55;58.44;102364.47;5052802;28;20361;-69
2021/09/07 09:12:46;;;;;;;11.05;7.20;;;;;;;21.56;58.21;102355.53;5053943;28;20270;-69
2021/09/07 09:15:14;;;;;;;11.50;6.72;;;;;;;21.58;58.22;102349.28;5052834;28;20047;-70
2021/09/07 09:17:39;;;;;;;10.30;6.80;;;;;;;21.58;58.23;102347.47;5052133;28;20116;-69
2021/09/07 09:20:19;;;;;;;9.13;6.57;;;;;;;21.60;58.10;102353.50;5052787;28;20401;-69
2021/09/07 09:22:54;;;;;;;9.20;7.10;;;;;;;21.62;58.11;102346.28;5053199;28;20025;-67
2021/09/07 09:25:23;;;;;;;9.60;6.93;;;;;;;21.62;57.98;102350.72;5052088;28;20530;-67
2021/09/07 09:27:57;;;;;;;8.60;6.32;;;;;;;21.63;58.13;102355.09;5052671;28;20119;-67
2021/09/07 09:30:37;;;;;;;11.40;7.40;;;;;;;21.64;58.00;102360.28;5052884;28;20112;-68
2021/09/07 09:33:03;;;;;;;8.65;6.32;;;;;;;21.63;58.07;102350.63;5052122;28;20106;-67
2021/09/07 09:35:28;;;;;;;10.50;7.00;;;;;;;21.65;57.90;102353.16;5052640;28;20103;-67
2021/09/07 09:38:02;;;;;;;8.85;6.25;;;;;;;21.64;57.75;102357.63;5051482;28;20512;-68
2021/09/07 09:40:30;;;;;;;9.13;6.05;;;;;;;21.64;57.78;102357.63;5052629;28;20040;-67
2021/09/07 09:42:57;;;;;;;9.32;6.55;;;;;;;21.68;57.99;102358.25;5052284;28;20380;-68
2021/09/07 09:45:31;;;;;;;9.38;6.32;;;;;;;21.68;57.92;102351.16;5051860;28;20136;-67
2021/09/07 09:47:57;;;;;;;10.63;6.72;;;;;;;21.69;57.95;102354.63;5051882;28;20061;-67
2021/09/07 09:50:29;;;;;;;8.60;5.97;;;;;;;21.68;57.84;102350.28;5052815;28;20033;-67
2021/09/07 09:52:56;;;;;;;8.85;5.90;;;;;;;21.70;57.91;102346.56;5052003;28;20025;-68
2021/09/07 09:55:24;;;;;;;9.05;6.35;;;;;;;21.70;57.84;102343.91;5052696;28;20025;-69
2021/09/07 09:57:50;;;;;;;10.15;6.85;;;;;;;21.69;57.86;102338.72;5051922;28;20056;-68
2021/09/07 10:00:18;;;;;;;8.93;6.57;;;;;;;21.73;57.78;102337.56;5052281;28;20060;-67
2021/09/07 10:02:45;;;;;;;8.82;6.30;;;;;;;21.75;57.77;102343.59;5052769;28;20021;-67
2021/09/07 10:05:14;;;;;;;8.15;5.90;;;;;;;21.76;57.71;102332.00;5052447;28;20453;-66
2021/09/07 10:07:39;;;;;;;8.75;6.40;;;;;;;21.78;57.81;102331.88;5051971;28;20033;-67
2021/09/07 10:10:06;;;;;;;9.87;6.80;;;;;;;21.78;57.55;102331.88;5052083;28;20522;-68
2021/09/07 10:12:40;;;;;;;9.52;6.70;;;;;;;21.79;57.53;102330.94;5052705;28;20357;-71
2021/09/07 10:15:26;;;;;;;;;;;;;;;21.79;57.59;102334.41;5051845;28;20060;-70
2021/09/07 10:23:57;;;;;;;9.43;6.57;;;;;;;21.80;57.67;102330.81;5052374;28;20133;-68
2021/09/07 10:26:37;;;;;;;9.18;6.20;;;;;;;21.79;57.69;102325.63;5052791;28;20021;-69
2021/09/07 10:29:06;;;;;;;9.65;6.43;;;;;;;21.74;57.61;102326.78;5050863;28;20139;-69
2021/09/07 10:31:49;;;;;;;7.97;5.80;;;;;;;21.77;57.75;102323.09;5052311;28;20056;-70
2021/09/07 10:34:16;;;;;;;9.27;6.20;;;;;;;21.76;57.54;102315.22;5051328;28;20025;-69
2021/09/07 10:37:04;;;;;;;8.68;6.40;;;;;;;21.76;57.76;102317.88;5051837;28;20395;-67
2021/09/07 10:39:39;;;;;;;9.25;6.38;;;;;;;21.77;57.58;102311.63;5051672;28;20424;-69
2021/09/07 10:42:26;;;;;;;9.82;5.70;;;;;;;21.77;57.82;102306.31;5051312;28;20415;-71
2021/09/07 10:44:59;;;;;;;9.35;6.05;;;;;;;21.79;57.69;102309.69;5053512;28;20091;-66
2021/09/07 10:47:40;;;;;;;8.82;5.90;;;;;;;21.83;57.61;102303.22;5052440;28;20033;-67
2021/09/07 10:50:06;;;;;;;8.77;6.47;;;;;;;21.82;57.45;102298.88;5051003;28;20029;-68
2021/09/07 10:52:33;;;;;;;9.15;5.95;;;;;;;21.84;57.48;102302.25;5054398;28;20027;-68
2021/09/07 10:55:09;;;;;;;9.15;6.35;;;;;;;21.86;57.64;102303.00;5054937;28;20084;-67
2021/09/07 10:57:38;;;;;;;9.65;5.82;;;;;;;21.86;57.42;102301.19;5051579;28;20043;-66
2021/09/07 11:00:25;;;;;;;9.70;5.88;;;;;;;21.86;57.41;102290.56;5053236;28;20029;-67
2021/09/07 11:02:53;;;;;;;8.27;6.13;;;;;;;21.84;57.46;102291.63;5050501;28;20418;-68
2021/09/07 11:05:45;;;;;;;9.02;6.10;;;;;;;21.84;57.58;102286.31;5051806;28;20043;-64
2021/09/07 11:08:17;;;;;;;9.80;6.28;;;;;;;21.86;57.45;102290.56;5053557;28;20048;-64
2021/09/07 11:10:52;;;;;;;9.80;6.18;;;;;;;21.85;57.41;102288.03;5054280;28;20484;-64
2021/09/07 11:13:30;;;;;;;8.70;6.18;;;;;;;21.85;57.09;102285.38;5055383;28;20025;-65
2021/09/07 11:16:02;;;;;;;8.40;6.07;;;;;;;21.82;57.39;102282.94;5055178;28;20483;-66
2021/09/07 11:18:32;;;;;;;9.95;6.13;;;;;;;21.77;57.19;102269.19;5054372;28;20017;-66
2021/09/07 11:21:03;;;;;;;9.07;6.03;;;;;;;21.84;57.06;102281.00;5054830;28;20162;-65
2021/09/07 11:23:34;;;;;;;9.68;6.15;;;;;;;21.83;57.28;102285.47;5054612;28;20056;-64
2021/09/07 11:26:06;;;;;;;9.63;5.93;;;;;;;21.83;57.10;102279.34;5054733;28;20491;-65
2021/09/07 11:28:34;;;;;;;9.35;6.10;;;;;;;21.82;57.39;102280.28;5054920;28;20087;-64